»·PEaware :: N122SQ KAPA-KGWS

N122SQ :: KAPA-KGWS

FLIGHT INFORMATION

Flight Status: Arrived
Operator: Privately registered:
United States
More flights under this callsign
Pilot: Gabor H. (24209)
Aircraft: CIRRUS SR-22 TURBO
(S22T)
More flights by this aircraft type
Origin: KAPA Centennial
United States
Destination: KGWS Glenwood Springs Mun
United States
More flights between these airports :: More routes between these airports
Route:
File this flight plan on PilotEdge
Remarks:
Altitude:
(Current/Filed)
10,500ft
Speed:
(Current/Filed)
0kts
Departed: 29-Sep-23 11:01 AM
Arrived: 29-Sep-23 11:47 AM
Distance/Time
Traveled:
114nm/0:46
Distance/Time
To Go:
Arrived

Flight Plot

Page will automatically refresh every two minutes.

Flight plan parsing failed; only flown route is shown


Map Options




Map Legend


Flown Route
Filed Route
Departure Airport
Arrival Airport
Navaid (VOR, NDB)
Fix

Horizontal Profiles

Position Reports

Time Latitude Longitude Heading Altitude Ground
Speed
29-Sep-23 10:55 39.573040 -104.842099 89 5887ft 0kts
29-Sep-23 10:56 39.573154 -104.841916 350 5887ft 3kts
29-Sep-23 10:57 39.573903 -104.846466 267 5887ft 19kts
29-Sep-23 10:58 39.576683 -104.849727 0 5887ft 20kts
29-Sep-23 10:59 39.583597 -104.850020 359 5887ft 14kts
29-Sep-23 11:00 39.584099 -104.850387 275 5887ft 6kts
29-Sep-23 11:01 39.571853 -104.851081 176 5973ft 114kts
29-Sep-23 11:02 39.543574 -104.866686 271 6989ft 137kts
29-Sep-23 11:02 39.555008 -104.905862 290 7942ft 138kts
29-Sep-23 11:04 39.574661 -104.966045 294 8535ft 171kts
29-Sep-23 11:05 39.596462 -105.027330 294 8520ft 181kts
29-Sep-23 11:06 39.616751 -105.084527 293 9056ft 166kts
29-Sep-23 11:06 39.632927 -105.130071 294 9497ft 165kts
29-Sep-23 11:07 39.652221 -105.184462 293 10023ft 166kts
29-Sep-23 11:09 39.670448 -105.247931 282 10503ft 168kts
29-Sep-23 11:10 39.679359 -105.303549 278 10517ft 168kts
29-Sep-23 11:11 39.686164 -105.364388 275 10495ft 171kts
29-Sep-23 11:11 39.691646 -105.415757 277 10507ft 168kts
29-Sep-23 11:12 39.699490 -105.475410 280 10584ft 168kts
29-Sep-23 11:13 39.706328 -105.533036 268 11165ft 148kts
29-Sep-23 11:15 39.707203 -105.593628 268 12300ft 144kts
29-Sep-23 11:15 39.705432 -105.637217 263 12913ft 148kts
29-Sep-23 11:16 39.702249 -105.691652 262 13704ft 149kts
29-Sep-23 11:17 39.700586 -105.744230 265 14485ft 154kts
29-Sep-23 11:18 39.700518 -105.794938 267 14511ft 175kts
29-Sep-23 11:19 39.700477 -105.855235 268 14494ft 175kts
29-Sep-23 11:20 39.700534 -105.921518 267 14575ft 168kts
29-Sep-23 11:21 39.700470 -105.982739 267 14655ft 166kts
29-Sep-23 11:22 39.700430 -106.042558 267 14704ft 168kts
29-Sep-23 11:23 39.700308 -106.102117 267 14765ft 163kts
29-Sep-23 11:24 39.700184 -106.161152 267 14742ft 165kts
29-Sep-23 11:25 39.700002 -106.223638 268 14257ft 179kts
29-Sep-23 11:26 39.699777 -106.289214 269 13737ft 186kts
29-Sep-23 11:27 39.699558 -106.357181 269 13172ft 188kts
29-Sep-23 11:28 39.699285 -106.423601 267 12604ft 181kts
29-Sep-23 11:29 39.698933 -106.488973 267 12061ft 181kts
29-Sep-23 11:30 39.698551 -106.555700 268 11516ft 186kts
29-Sep-23 11:31 39.698172 -106.622163 268 10959ft 181kts
29-Sep-23 11:32 39.697022 -106.686989 262 10576ft 172kts
29-Sep-23 11:33 39.695977 -106.747014 264 10652ft 163kts
29-Sep-23 11:34 39.692252 -106.804934 262 10672ft 162kts
29-Sep-23 11:35 39.686529 -106.861973 259 10727ft 155kts
29-Sep-23 11:36 39.680209 -106.917572 259 10734ft 157kts
29-Sep-23 11:37 39.674059 -106.973833 259 10722ft 158kts
29-Sep-23 11:38 39.664046 -107.032624 258 10160ft 172kts
29-Sep-23 11:39 39.648443 -107.090646 233 9567ft 171kts
29-Sep-23 11:40 39.620697 -107.141106 230 8954ft 173kts
29-Sep-23 11:41 39.590418 -107.189591 231 8304ft 176kts
29-Sep-23 11:42 39.564385 -107.244195 253 7495ft 181kts
29-Sep-23 11:43 39.560567 -107.307571 244 6850ft 169kts
29-Sep-23 11:44 39.529931 -107.324535 161 6149ft 97kts
29-Sep-23 11:45 39.506395 -107.309372 152 5919ft 57kts
29-Sep-23 11:46 39.504507 -107.307549 258 5919ft 0kts
29-Sep-23 11:47 39.504507 -107.307549 258 5919ft 0kts

Navigation Log

Ident Type
Flight plan parsing failed, navigation log unavailable